createdAt,value
2022-11-28T00:02:22.067Z,5.50
2022-11-28T00:04:53.056Z,5.20
2022-11-28T00:07:22.141Z,5.47
2022-11-28T00:09:52.974Z,5.78
2022-11-28T00:12:21.811Z,5.75
2022-11-28T00:14:51.779Z,5.80
2022-11-28T00:17:20.644Z,5.55
2022-11-28T00:19:49.358Z,5.68
2022-11-28T00:22:18.167Z,6.35
2022-11-28T00:24:46.858Z,5.60
2022-11-28T00:27:15.614Z,5.75
2022-11-28T00:29:44.194Z,5.53
2022-11-28T00:32:14.698Z,6.60
2022-11-28T00:34:44.010Z,6.32
2022-11-28T00:37:12.750Z,6.32
2022-11-28T00:39:41.607Z,6.32
2022-11-28T00:42:10.289Z,6.35
2022-11-28T00:44:38.915Z,6.55
2022-11-28T00:47:07.860Z,6.65
2022-11-28T00:49:37.999Z,6.68
2022-11-28T00:52:06.969Z,6.70
2022-11-28T00:54:36.815Z,6.85
2022-11-28T00:57:05.667Z,7.03
2022-11-28T00:59:34.478Z,6.30
2022-11-28T01:02:03.549Z,6.45
2022-11-28T01:04:32.351Z,6.50
2022-11-28T01:07:02.645Z,6.43
2022-11-28T01:09:31.342Z,6.75
2022-11-28T01:12:00.002Z,7.13
2022-11-28T01:14:30.176Z,9.95
2022-11-28T01:16:58.901Z,10.88
2022-11-28T01:19:27.508Z,7.70
2022-11-28T01:21:56.266Z,6.88
2022-11-28T01:24:26.303Z,6.93
2022-11-28T01:26:55.173Z,7.10
2022-11-28T01:29:23.781Z,7.65
2022-11-28T01:31:52.647Z,6.22
2022-11-28T01:34:21.564Z,5.95
2022-11-28T01:36:50.146Z,6.53
2022-11-28T01:39:18.741Z,5.65
2022-11-28T01:41:49.037Z,6.43
2022-11-28T01:44:54.048Z,6.53
2022-11-28T01:47:24.944Z,6.40
2022-11-28T01:49:54.127Z,6.38
2022-11-28T01:52:23.323Z,6.60
2022-11-28T01:54:56.494Z,6.40
2022-11-28T01:57:27.555Z,6.05
2022-11-28T02:00:00.266Z,6.53
2022-11-28T02:02:33.775Z,6.05
2022-11-28T02:05:02.713Z,5.90
2022-11-28T02:07:31.499Z,5.80
2022-11-28T02:10:00.366Z,5.90
2022-11-28T02:12:46.534Z,6.03
2022-11-28T02:15:36.685Z,6.20
2022-11-28T02:18:24.195Z,5.95
2022-11-28T02:21:07.329Z,7.22
2022-11-28T02:23:53.081Z,9.07
2022-11-28T02:26:50.375Z,7.40
2022-11-28T02:29:46.539Z,6.28
2022-11-28T02:32:33.698Z,6.00
2022-11-28T02:35:09.740Z,6.40
2022-11-28T02:37:44.980Z,5.70
2022-11-28T02:40:20.531Z,5.93
2022-11-28T02:42:58.327Z,5.32
2022-11-28T02:45:33.791Z,5.82
2022-11-28T02:48:06.710Z,5.35
2022-11-28T02:50:42.130Z,6.00
2022-11-28T02:53:15.221Z,5.38
2022-11-28T02:55:45.569Z,5.90
2022-11-28T02:58:14.621Z,5.68
2022-11-28T03:00:44.901Z,5.28
2022-11-28T03:03:49.063Z,5.15
2022-11-28T03:06:30.010Z,5.38
2022-11-28T03:09:09.055Z,5.25
2022-11-28T03:11:47.612Z,5.85
2022-11-28T03:14:24.611Z,5.70
2022-11-28T03:16:56.996Z,5.60
2022-11-28T03:19:30.527Z,5.22
2022-11-28T03:22:05.673Z,5.25
2022-11-28T03:24:38.532Z,5.50
2022-11-28T03:27:11.484Z,5.80
2022-11-28T03:29:44.233Z,6.25
2022-11-28T03:32:14.678Z,6.10
2022-11-28T03:34:46.848Z,5.90
2022-11-28T03:37:19.212Z,6.70
2022-11-28T03:39:51.704Z,5.68
2022-11-28T03:42:23.250Z,6.10
2022-11-28T03:44:57.092Z,6.20
2022-11-28T03:47:27.534Z,5.70
2022-11-28T03:49:58.799Z,7.32
2022-11-28T03:52:32.915Z,6.82
2022-11-28T03:55:04.769Z,6.43
2022-11-28T03:57:37.263Z,5.93
2022-11-28T04:00:08.613Z,6.47
2022-11-28T04:02:50.163Z,6.72
2022-11-28T04:05:22.978Z,6.03
2022-11-28T04:07:56.233Z,5.65
2022-11-28T04:10:31.367Z,5.90
2022-11-28T04:13:02.932Z,6.13
2022-11-28T04:15:37.823Z,6.50
2022-11-28T04:18:14.026Z,5.95
2022-11-28T04:20:46.571Z,5.93
2022-11-28T04:23:19.464Z,6.50
2022-11-28T04:25:52.955Z,6.18
2022-11-28T04:28:24.641Z,6.43
2022-11-28T04:30:55.228Z,5.60
2022-11-28T04:33:25.267Z,5.63
2022-11-28T04:35:54.773Z,5.80
2022-11-28T04:38:25.572Z,9.55
2022-11-28T04:40:58.087Z,8.43
2022-11-28T04:43:29.426Z,8.23
2022-11-28T04:46:01.733Z,6.57
2022-11-28T04:48:34.280Z,5.90
2022-11-28T04:51:10.604Z,6.60
2022-11-28T04:53:45.053Z,8.60
2022-11-28T04:56:18.254Z,5.55
2022-11-28T04:58:49.708Z,5.50
2022-11-28T05:01:22.187Z,5.22
2022-11-28T05:03:51.219Z,5.65
2022-11-28T05:06:30.245Z,5.88
2022-11-28T05:09:00.389Z,7.63
2022-11-28T05:11:29.344Z,6.25
2022-11-28T05:13:57.961Z,5.45
2022-11-28T05:16:26.636Z,5.55
2022-11-28T05:18:55.553Z,4.97
2022-11-28T05:21:24.193Z,5.68
2022-11-28T05:23:53.007Z,5.30
2022-11-28T05:26:23.797Z,5.10
2022-11-28T05:28:52.925Z,5.38
2022-11-28T05:31:22.662Z,5.38
2022-11-28T05:33:51.471Z,4.93
2022-11-28T05:36:20.141Z,5.60
2022-11-28T05:38:49.327Z,5.60
2022-11-28T05:41:23.359Z,5.57
2022-11-28T05:43:52.171Z,5.33
2022-11-28T05:46:21.382Z,5.45
2022-11-28T05:48:50.191Z,5.95
2022-11-28T05:51:19.492Z,5.30
2022-11-28T05:53:48.155Z,6.05
2022-11-28T05:56:19.037Z,6.22
2022-11-28T05:58:49.139Z,5.40
2022-11-28T06:01:20.036Z,5.43
2022-11-28T06:03:49.396Z,5.35
2022-11-28T06:06:19.970Z,6.13
2022-11-28T06:08:50.023Z,5.38
2022-11-28T06:11:19.818Z,5.47
2022-11-28T06:13:50.652Z,6.18
2022-11-28T06:16:20.851Z,5.65
2022-11-28T06:18:49.776Z,5.78
2022-11-28T06:21:18.666Z,5.50
2022-11-28T06:23:48.768Z,6.28
2022-11-28T06:26:19.344Z,5.70
2022-11-28T06:28:49.838Z,5.82
2022-11-28T06:31:19.924Z,5.82
2022-11-28T06:33:49.063Z,5.63
2022-11-28T06:36:19.057Z,5.72
2022-11-28T06:38:48.092Z,5.25
2022-11-28T06:41:19.386Z,5.05
2022-11-28T06:43:49.450Z,5.88
2022-11-28T06:46:20.087Z,5.80
2022-11-28T06:48:49.964Z,5.85
2022-11-28T06:51:19.732Z,5.00
2022-11-28T06:53:48.880Z,5.72
2022-11-28T06:56:19.537Z,5.30
2022-11-28T06:58:54.068Z,5.70
2022-11-28T07:01:23.753Z,6.18
2022-11-28T07:03:54.431Z,5.38
2022-11-28T07:06:24.589Z,5.45
2022-11-28T07:08:53.732Z,5.53
2022-11-28T07:11:24.302Z,5.28
2022-11-28T07:13:54.833Z,5.43
2022-11-28T07:16:25.188Z,5.32
2022-11-28T07:18:54.244Z,5.82
2022-11-28T07:21:24.202Z,5.10
2022-11-28T07:23:53.480Z,11.43
2022-11-28T07:26:23.333Z,5.47
2022-11-28T07:28:56.108Z,5.30
2022-11-28T07:31:26.698Z,5.20
2022-11-28T07:33:55.855Z,5.05
2022-11-28T07:36:26.072Z,5.10
2022-11-28T07:38:56.189Z,6.78
2022-11-28T07:41:26.934Z,5.45
2022-11-28T07:43:58.896Z,5.40
2022-11-28T07:46:29.146Z,5.38
2022-11-28T07:48:57.880Z,5.40
2022-11-28T07:51:28.170Z,5.40
2022-11-28T07:53:57.342Z,5.93
2022-11-28T07:56:39.541Z,5.93
2022-11-28T07:59:18.266Z,8.50
2022-11-28T08:01:47.056Z,6.38
2022-11-28T08:04:16.076Z,5.43
2022-11-28T08:06:44.928Z,4.95
2022-11-28T08:09:13.980Z,5.22
2022-11-28T08:11:43.135Z,5.32
2022-11-28T08:14:11.945Z,7.35
2022-11-28T08:16:44.981Z,4.35
2022-11-28T08:19:14.161Z,5.03
2022-11-28T08:21:42.967Z,4.72
2022-11-28T08:24:12.980Z,5.20
2022-11-28T08:26:41.574Z,5.35
2022-11-28T08:29:11.527Z,5.07
2022-11-28T08:31:42.331Z,5.20
2022-11-28T08:34:12.803Z,5.55
2022-11-28T08:36:43.291Z,4.50
2022-11-28T08:39:28.011Z,4.72
2022-11-28T08:41:58.870Z,4.97
2022-11-28T08:44:31.117Z,5.57
2022-11-28T08:47:01.575Z,5.28
2022-11-28T08:49:30.234Z,4.63
2022-11-28T08:51:58.895Z,4.60
2022-11-28T08:54:27.548Z,5.50
2022-11-28T08:56:56.172Z,4.70
2022-11-28T08:59:24.812Z,4.88
2022-11-28T09:01:54.245Z,4.55
2022-11-28T09:04:24.923Z,5.40
2022-11-28T09:06:53.813Z,6.50
2022-11-28T09:09:22.912Z,5.38
2022-11-28T09:11:51.493Z,5.28
2022-11-28T09:14:21.304Z,5.00
2022-11-28T09:16:50.299Z,5.63
2022-11-28T09:19:19.305Z,5.57
2022-11-28T09:21:53.178Z,6.70
2022-11-28T09:24:23.274Z,5.88
2022-11-28T09:26:52.236Z,5.75
2022-11-28T09:29:20.954Z,5.20
2022-11-28T09:31:49.749Z,5.28
2022-11-28T09:34:18.527Z,5.18
2022-11-28T09:36:50.044Z,5.28
2022-11-28T09:39:19.038Z,5.00
2022-11-28T09:41:57.620Z,4.95
2022-11-28T09:44:31.567Z,4.95
2022-11-28T09:47:03.055Z,5.30
2022-11-28T09:49:40.321Z,4.85
2022-11-28T09:52:23.201Z,5.20
2022-11-28T09:54:58.529Z,4.95
2022-11-28T09:57:33.546Z,4.80
2022-11-28T10:02:49.909Z,5.93
2022-11-28T10:05:24.312Z,5.10
2022-11-28T10:08:11.187Z,4.72
2022-11-28T10:10:48.778Z,6.07
2022-11-28T10:13:20.890Z,5.10
2022-11-28T10:15:56.324Z,4.90
2022-11-28T10:18:34.546Z,5.30
2022-11-28T10:21:06.133Z,5.65
2022-11-28T10:23:39.800Z,4.95
2022-11-28T10:26:12.506Z,6.38
2022-11-28T10:28:44.987Z,6.13
2022-11-28T10:31:17.595Z,6.35
2022-11-28T10:33:49.551Z,5.97
2022-11-28T10:36:23.966Z,5.70
2022-11-28T10:38:54.134Z,5.28
2022-11-28T10:41:25.751Z,5.40
2022-11-28T10:44:00.422Z,5.85
2022-11-28T10:46:42.068Z,5.57
2022-11-28T10:49:24.079Z,5.63
2022-11-28T10:52:01.174Z,4.63
2022-11-28T10:54:54.939Z,5.25
2022-11-28T10:57:27.899Z,5.57
2022-11-28T11:00:06.324Z,5.32
2022-11-28T11:02:38.457Z,5.57
2022-11-28T11:05:08.521Z,5.45
2022-11-28T11:07:37.715Z,5.20
2022-11-28T11:10:17.218Z,5.15
2022-11-28T11:12:46.132Z,5.07
2022-11-28T11:15:33.437Z,5.00
2022-11-28T11:18:06.137Z,4.93
2022-11-28T11:20:37.857Z,5.28
2022-11-28T11:23:17.022Z,5.35
2022-11-28T11:25:53.641Z,6.28
2022-11-28T11:28:30.413Z,6.03
2022-11-28T11:31:03.351Z,5.80
2022-11-28T11:33:36.810Z,6.40
2022-11-28T11:36:25.532Z,6.25
2022-11-28T11:39:05.299Z,6.00
2022-11-28T11:41:35.671Z,6.15
2022-11-28T11:44:29.639Z,5.80
2022-11-28T11:47:02.930Z,5.75
2022-11-28T11:49:33.817Z,6.22
2022-11-28T11:52:04.395Z,6.30
2022-11-28T11:54:33.380Z,6.50
2022-11-28T11:57:32.079Z,6.82
2022-11-28T11:59:55.524Z,7.07
2022-11-28T12:02:29.106Z,6.30
2022-11-28T12:05:03.228Z,6.60
2022-11-28T12:07:38.098Z,6.88
2022-11-28T12:12:39.197Z,6.22
2022-11-28T12:15:17.404Z,6.85
2022-11-28T12:17:58.809Z,6.80
2022-11-28T12:20:48.966Z,6.68
2022-11-28T12:23:36.828Z,7.80
2022-11-28T12:26:12.281Z,8.38
2022-11-28T12:28:55.231Z,7.00
2022-11-28T12:31:31.585Z,8.10
2022-11-28T12:34:09.788Z,9.60
2022-11-28T12:36:41.351Z,7.93
2022-11-28T12:39:22.557Z,8.77
2022-11-28T12:42:26.904Z,7.18
2022-11-28T12:45:16.329Z,7.53
2022-11-28T12:47:52.372Z,6.93
2022-11-28T12:50:29.659Z,6.63
2022-11-28T12:53:12.590Z,6.72
2022-11-28T12:55:46.063Z,6.75
2022-11-28T12:58:19.621Z,6.15
2022-11-28T13:00:55.745Z,6.30
2022-11-28T13:03:35.533Z,8.38
2022-11-28T13:06:19.563Z,6.35
2022-11-28T13:09:04.676Z,5.70
2022-11-28T13:11:50.247Z,5.22
2022-11-28T13:16:52.951Z,6.38
2022-11-28T13:19:30.974Z,5.57
2022-11-28T13:22:05.930Z,5.70
2022-11-28T13:27:11.147Z,5.70
2022-11-28T13:29:50.248Z,6.05
2022-11-28T13:32:25.245Z,9.77
2022-11-28T13:40:20.906Z,7.43
2022-11-28T13:43:04.042Z,6.82
2022-11-28T13:45:39.270Z,7.07
2022-11-28T13:49:13.873Z,6.50
2022-11-28T13:51:45.132Z,6.47
2022-11-28T13:54:37.260Z,7.15
2022-11-28T13:57:10.195Z,7.03
2022-11-28T13:59:39.563Z,7.30
2022-11-28T14:02:23.916Z,6.18
2022-11-28T14:04:52.961Z,14.47
2022-11-28T14:07:28.878Z,9.50
2022-11-28T14:10:23.050Z,7.35
2022-11-28T14:13:04.765Z,7.10
2022-11-28T14:15:38.473Z,6.57
2022-11-28T14:21:25.142Z,6.82
2022-11-28T14:24:00.626Z,6.13
2022-11-28T14:26:33.651Z,6.25
2022-11-28T14:29:03.808Z,6.82
2022-11-28T14:31:34.572Z,6.78
2022-11-28T14:34:05.403Z,6.53
2022-11-28T14:36:35.918Z,6.80
2022-11-28T14:39:34.331Z,5.90
2022-11-28T14:42:59.958Z,6.97
2022-11-28T14:45:45.200Z,6.35
2022-11-28T14:48:30.245Z,6.43
2022-11-28T14:51:02.284Z,6.65
2022-11-28T14:53:44.263Z,7.53
2022-11-28T14:56:29.072Z,8.57
2022-11-28T14:59:00.185Z,8.32
2022-11-28T15:01:48.102Z,7.32
2022-11-28T15:04:42.937Z,6.38
2022-11-28T15:07:23.087Z,6.93
2022-11-28T15:10:04.108Z,6.18
2022-11-28T15:12:43.109Z,7.35
2022-11-28T15:15:14.548Z,6.75
2022-11-28T15:17:44.152Z,7.03
2022-11-28T15:20:20.534Z,8.23
2022-11-28T15:22:49.553Z,7.10
2022-11-28T15:25:22.971Z,6.70
2022-11-28T15:27:55.403Z,8.80
2022-11-28T15:30:26.580Z,9.82
2022-11-28T15:32:58.267Z,7.90
2022-11-28T15:35:27.130Z,7.85
2022-11-28T15:37:58.378Z,7.53
2022-11-28T15:40:29.255Z,8.18
2022-11-28T15:43:00.187Z,7.43
2022-11-28T15:45:31.404Z,13.40
2022-11-28T15:48:00.743Z,9.75
2022-11-28T15:50:31.594Z,7.57
2022-11-28T15:53:02.408Z,9.52
2022-11-28T15:55:33.634Z,8.95
2022-11-28T15:58:13.945Z,8.20
2022-11-28T16:00:45.314Z,8.80
2022-11-28T16:03:16.780Z,8.80
2022-11-28T16:05:46.254Z,15.80
2022-11-28T16:08:22.206Z,11.30
2022-11-28T16:10:51.073Z,9.65
2022-11-28T16:13:24.690Z,9.48
2022-11-28T16:15:55.938Z,15.32
2022-11-28T16:18:24.743Z,11.18
2022-11-28T16:20:53.508Z,10.30
2022-11-28T16:23:27.211Z,9.48
2022-11-28T16:26:03.408Z,9.18
2022-11-28T16:28:34.911Z,9.95
2022-11-28T16:31:04.029Z,10.00
2022-11-28T16:33:40.037Z,9.88
2022-11-28T16:36:17.973Z,9.95
2022-11-28T16:38:48.210Z,10.80
2022-11-28T16:41:18.811Z,15.20
2022-11-28T16:43:53.534Z,13.95
2022-11-28T16:46:23.789Z,11.45
2022-11-28T16:48:56.358Z,10.90
2022-11-28T16:51:34.048Z,9.48
2022-11-28T16:54:30.345Z,10.93
2022-11-28T16:57:10.749Z,20.23
2022-11-28T16:59:41.357Z,15.07
2022-11-28T17:02:18.847Z,10.98
2022-11-28T17:04:48.578Z,10.65
2022-11-28T17:07:19.195Z,10.35
2022-11-28T17:09:49.061Z,10.18
2022-11-28T17:12:23.362Z,10.05
2022-11-28T17:14:53.628Z,9.95
2022-11-28T17:17:24.199Z,10.40
2022-11-28T17:19:53.336Z,9.85
2022-11-28T17:22:23.245Z,11.10
2022-11-28T17:24:52.550Z,9.82
2022-11-28T17:27:21.365Z,11.15
2022-11-28T17:29:50.000Z,12.00
2022-11-28T17:32:20.114Z,11.57
2022-11-28T17:34:48.866Z,11.30
2022-11-28T17:37:17.689Z,12.88
2022-11-28T17:40:00.309Z,13.77
2022-11-28T17:42:29.094Z,30.67
2022-11-28T17:44:57.827Z,18.77
2022-11-28T17:47:28.110Z,15.52
2022-11-28T17:49:57.391Z,13.25
2022-11-28T17:52:30.136Z,13.10
2022-11-28T17:55:06.825Z,12.10
2022-11-28T17:57:37.078Z,12.00
2022-11-28T18:00:07.422Z,12.00
2022-11-28T18:02:44.222Z,11.77
2022-11-28T18:05:12.889Z,12.02
2022-11-28T18:07:42.220Z,12.65
2022-11-28T18:10:13.399Z,13.20
2022-11-28T18:12:42.503Z,12.73
2022-11-28T18:15:11.511Z,12.80
2022-11-28T18:17:40.584Z,11.85
2022-11-28T18:20:12.076Z,11.32
2022-11-28T18:22:40.968Z,13.10
2022-11-28T18:25:10.871Z,14.73
2022-11-28T18:27:39.834Z,11.73
2022-11-28T18:30:10.036Z,11.27
2022-11-28T18:32:38.906Z,11.00
2022-11-28T18:35:08.971Z,10.15
2022-11-28T18:37:40.804Z,10.30
2022-11-28T18:40:10.392Z,10.80
2022-11-28T18:42:39.337Z,11.60
2022-11-28T18:45:09.512Z,11.20
2022-11-28T18:47:38.115Z,12.25
2022-11-28T18:50:08.760Z,14.70
2022-11-28T18:52:38.779Z,12.70
2022-11-28T18:55:08.509Z,10.85
2022-11-28T18:57:38.106Z,10.45
2022-11-28T19:00:08.164Z,10.35
2022-11-28T19:02:37.518Z,10.85
2022-11-28T19:05:07.004Z,10.82
2022-11-28T19:07:35.812Z,10.70
2022-11-28T19:10:07.880Z,11.48
2022-11-28T19:12:37.898Z,12.18
2022-11-28T19:15:07.402Z,13.48
2022-11-28T19:17:36.084Z,13.18
2022-11-28T19:20:06.362Z,16.77
2022-11-28T19:22:36.541Z,12.57
2022-11-28T19:25:08.239Z,12.15
2022-11-28T19:27:36.909Z,11.60
2022-11-28T19:30:07.065Z,11.80
2022-11-28T19:32:36.399Z,9.80
2022-11-28T19:35:05.955Z,10.63
2022-11-28T19:37:34.711Z,13.20
2022-11-28T19:40:03.673Z,15.85
2022-11-28T19:42:35.300Z,12.90
2022-11-28T19:45:04.129Z,13.20
2022-11-28T19:47:33.369Z,21.85
2022-11-28T19:50:02.216Z,19.95
2022-11-28T19:52:31.187Z,14.20
2022-11-28T19:55:00.900Z,11.75
2022-11-28T19:57:29.933Z,9.93
2022-11-28T20:00:00.470Z,10.05
2022-11-28T20:02:29.320Z,10.07
2022-11-28T20:04:58.435Z,10.88
2022-11-28T20:07:28.499Z,11.30
2022-11-28T20:09:57.185Z,12.50
2022-11-28T20:12:26.116Z,10.95
2022-11-28T20:14:54.778Z,12.65
2022-11-28T20:17:25.303Z,12.45
2022-11-28T20:19:53.921Z,13.00
2022-11-28T20:22:24.658Z,13.93
2022-11-28T20:24:53.610Z,12.60
2022-11-28T20:27:22.528Z,14.63
2022-11-28T20:29:51.491Z,13.40
2022-11-28T20:32:20.144Z,15.60
2022-11-28T20:34:50.450Z,15.00
2022-11-28T20:37:19.463Z,14.55
2022-11-28T20:39:48.517Z,14.32
2022-11-28T20:42:17.638Z,14.40
2022-11-28T20:44:46.496Z,14.65
2022-11-28T20:47:15.153Z,14.88
2022-11-28T20:49:44.174Z,14.00
2022-11-28T20:52:14.383Z,14.25
2022-11-28T20:54:43.036Z,14.25
2022-11-28T20:57:21.467Z,14.25
2022-11-28T20:59:51.175Z,14.40
2022-11-28T21:02:19.926Z,13.43
2022-11-28T21:04:48.829Z,13.25
2022-11-28T21:07:19.256Z,13.00
2022-11-28T21:09:48.173Z,13.50
2022-11-28T21:12:20.912Z,13.05
2022-11-28T21:14:51.896Z,13.20
2022-11-28T21:17:20.714Z,13.32
2022-11-28T21:19:49.507Z,14.27
2022-11-28T21:22:19.642Z,18.58
2022-11-28T21:24:51.244Z,21.30
2022-11-28T21:27:19.926Z,21.33
2022-11-28T21:29:52.016Z,19.05
2022-11-28T21:32:20.999Z,14.25
2022-11-28T21:34:49.947Z,13.18
2022-11-28T21:37:20.060Z,12.98
2022-11-28T21:39:48.819Z,16.58
2022-11-28T21:42:20.707Z,20.00
2022-11-28T21:44:49.612Z,13.52
2022-11-28T21:47:18.587Z,14.00
2022-11-28T21:49:47.426Z,12.88
2022-11-28T21:52:19.169Z,13.43
2022-11-28T21:54:50.523Z,13.32
2022-11-28T21:57:19.380Z,11.82
2022-11-28T21:59:48.332Z,11.35
2022-11-28T22:02:18.010Z,11.95
2022-11-28T22:04:47.095Z,12.27
2022-11-28T22:07:16.148Z,11.20
2022-11-28T22:09:45.003Z,12.82
2022-11-28T22:12:15.522Z,12.73
2022-11-28T22:14:44.221Z,12.85
2022-11-28T22:17:12.867Z,15.88
2022-11-28T22:19:41.559Z,16.73
2022-11-28T22:22:10.384Z,13.63
2022-11-28T22:24:41.287Z,13.15
2022-11-28T22:27:10.925Z,12.25
2022-11-28T22:29:41.054Z,12.15
2022-11-28T22:32:10.364Z,12.90
2022-11-28T22:34:40.216Z,13.07
2022-11-28T22:37:09.680Z,12.45
2022-11-28T22:39:39.666Z,12.55
2022-11-28T22:42:08.672Z,13.40
2022-11-28T22:44:37.285Z,14.52
2022-11-28T22:47:07.445Z,12.73
2022-11-28T22:49:36.378Z,12.88
2022-11-28T22:52:05.290Z,12.63
2022-11-28T22:54:34.477Z,13.38
2022-11-28T22:57:03.305Z,13.48
2022-11-28T22:59:35.113Z,13.00
2022-11-28T23:02:04.081Z,12.25
2022-11-28T23:04:34.244Z,13.10
2022-11-28T23:07:05.201Z,13.75
2022-11-28T23:09:34.210Z,13.18
2022-11-28T23:12:02.950Z,12.98
2022-11-28T23:14:32.998Z,12.05
2022-11-28T23:17:01.704Z,13.65
2022-11-28T23:19:33.855Z,12.13
2022-11-28T23:22:02.544Z,12.43
2022-11-28T23:24:31.270Z,12.38
2022-11-28T23:27:00.360Z,12.38
2022-11-28T23:29:30.040Z,11.52
2022-11-28T23:31:59.553Z,11.20
2022-11-28T23:34:29.874Z,12.10
2022-11-28T23:37:02.158Z,11.73
2022-11-28T23:39:30.850Z,12.15
2022-11-28T23:42:06.516Z,11.90
2022-11-28T23:44:35.124Z,12.15
2022-11-28T23:47:04.122Z,11.70
2022-11-28T23:49:32.824Z,11.90
2022-11-28T23:52:02.982Z,11.30
2022-11-28T23:54:31.643Z,12.52
2022-11-28T23:57:00.413Z,12.10
2022-11-28T23:59:29.157Z,11.25
